• Join FlightAware (Why Join?)
  • Login
  • US Flag 
05:30AM EDT


 

Airport Tracker/Info


-or-


 

Live Flight TrackerFlight Track Log ✈ N100PM ✈ 29-Oct-2013 ✈ 1R8 - KLFT

Flight Track Log - Related Links

Times and Time Zones

All times are in EDT time to prevent confusion due to time zone crossing. See the N100PM flight status page for this flight to view local times or setup timezone preferences in your user account.

Time Position Orientation Groundspeed Altitude Reporting Facility
EDT Latitude Longitude Course Direction KTS MPH feet Rate Location/Type
08:43PM 30.9733 -88.4478 260° West 111 128 6,100  Level Houston Center
08:44PM 30.9761 -88.4828 275° West 109 125 6,100  Level Houston Center
08:45PM 30.9758 -88.5183 269° West 110 127 6,100  Level Houston Center
08:46PM 30.9750 -88.5536 268° West 109 125 6,100 -60 Level Houston Center
08:47PM 30.8354 -88.0628 260° West  Level Estimated
08:47PM 30.9750 -88.5900 270° West 111 128 6,000  Level Houston Center
08:48PM 30.8300 -88.0975 260° West  Level FlightAware Approximate
08:48PM 30.9756 -88.6250 271° West 109 125 6,100  Level Houston Center
08:49PM 30.8247 -88.1322 260° West  Level FlightAware Approximate
08:49PM 30.9761 -88.6681 271° West 111 128 6,100  Level Houston Center
08:50PM 30.9758 -88.7036 269° West 110 127 6,100  Level Houston Center
08:51PM 30.9747 -88.7403 268° West 112 129 6,100  Level Houston Center
08:52PM 30.9739 -88.7758 268° West 112 129 6,100  Level Houston Center
08:54PM 30.9731 -88.8108 268° West 109 125 6,100  Level Houston Center
08:55PM 30.9769 -88.8472 277° West 112 129 6,100  Level Houston Center
08:56PM 30.9761 -88.8872 269° West 106 122 6,100  Level Houston Center
08:57PM 30.9847 -88.9231 286° West 111 128 6,100 -60 Level Houston Center
08:58PM 30.9922 -88.9556 285° West 114 131 6,000  Descending Houston Center
08:59PM 30.9914 -88.9975 269° West 110 127 6,100  Climbing Houston Center
09:00PM 30.9881 -89.0336 264° West 112 129 6,100  Level Houston Center
09:01PM 30.9878 -89.0703 270° West 113 130 6,100  Level Houston Center
09:02PM 30.9867 -89.1064 268° West 112 129 6,100  Level Houston Center
09:03PM 30.9889 -89.1425 274° West 112 129 6,100  Level Houston Center
09:04PM 30.9919 -89.1797 275° West 114 131 6,100  Level Houston Center
09:05PM 30.9953 -89.2133 277° West 108 124 6,100  Level Houston Center
09:06PM 31.0000 -89.2575 277° West 113 130 6,100  Level Houston Center
09:07PM 31.0036 -89.2942 277° West 114 131 6,100  Level Houston Center
09:08PM 31.0072 -89.3286 277° West 109 125 6,100  Level Houston Center
09:09PM 31.0089 -89.3650 273° West 111 128 6,100  Level Houston Center
09:10PM 31.0111 -89.4017 274° West 113 130 6,100  Level Houston Center
09:11PM 31.0142 -89.4381 276° West 113 130 6,100  Level Houston Center
09:12PM 31.0161 -89.4742 274° West 113 130 6,100  Level Houston Center
09:13PM 31.0172 -89.5206 272° West 118 136 6,100  Level Houston Center
09:14PM 31.0197 -89.5567 275° West 115 132 6,100  Level Houston Center
09:15PM 31.0217 -89.5931 274° West 113 130 6,100  Level Houston Center
09:16PM 31.0242 -89.6294 275° West 113 130 6,100  Level Houston Center
09:17PM 31.0256 -89.6658 273° West 113 130 6,100 -60 Level Houston Center
09:18PM 31.0294 -89.7025 277° West 114 131 6,000  Descending Houston Center
09:19PM 31.0319 -89.7389 275° West 113 130 6,100  Climbing Houston Center
09:20PM 31.0339 -89.7822 273° West 113 130 6,100  Level Houston Center
09:21PM 31.0361 -89.8189 274° West 113 130 6,100  Level Houston Center
09:22PM 31.0383 -89.8550 274° West 113 130 6,100  Level Houston Center
09:23PM 31.0406 -89.8911 274° West 113 130 6,100  Level Houston Center
09:24PM 31.0419 -89.9272 273° West 112 129 6,100  Level Houston Center
09:25PM 31.0444 -89.9614 275° West 108 124 6,100 -60 Level Houston Center
09:26PM 31.0472 -89.9978 275° West 111 128 6,000 -60 Descending Houston Center
09:27PM 31.0492 -90.0342 274° West 112 129 6,000  Level Houston Center
09:28PM 31.0517 -90.0703 275° West 112 129 6,100  Climbing Houston Center
09:29PM 31.0542 -90.1119 274° West 109 125 6,100  Level Houston Center
09:30PM 31.0567 -90.1478 275° West 110 127 6,100  Level Houston Center
09:31PM 31.0581 -90.1842 273° West 112 129 6,100  Level Houston Center
09:32PM 31.0603 -90.2206 274° West 112 129 6,100 -60 Level Houston Center
09:34PM 31.0619 -90.2567 273° West 113 130 6,000  Descending Houston Center
09:35PM 31.0644 -90.2911 275° West 109 125 6,100  Climbing Houston Center
09:36PM 31.0664 -90.3269 274° West 109 125 6,100  Level Houston Center
09:37PM 31.0681 -90.3633 273° West 112 129 6,100 -60 Level Houston Center
09:38PM 31.0708 -90.3997 275° West 113 130 6,000  Descending Houston Center
09:39PM 31.0728 -90.4406 273° West 108 124 6,100  Climbing Houston Center
09:40PM 31.0742 -90.4772 273° West 111 128 6,100  Level Houston Center
09:41PM 31.0767 -90.5108 275° West 107 123 6,100 -60 Level Houston Center
09:42PM 31.0783 -90.5453 273° West 106 122 6,000  Descending Houston Center
09:43PM 31.0803 -90.5786 274° West 105 121 6,100  Climbing Houston Center
09:44PM 31.0819 -90.6150 273° West 109 125 6,100  Level Houston Center
09:45PM 31.0842 -90.6494 274° West 108 124 6,100  Level Houston Center
09:46PM 31.0867 -90.6844 275° West 108 124 6,100  Level Houston Center
09:47PM 31.0889 -90.7186 274° West 107 123 6,100  Level Houston Center
09:48PM 31.0903 -90.7558 273° West 111 128 6,100  Level Houston Center
09:49PM 31.0917 -90.7997 272° West 112 129 6,100  Level Houston Center
09:50PM 31.0944 -90.8333 276° West 107 123 6,100  Level Houston Center
09:51PM 31.0950 -90.8700 271° West 111 128 6,100  Level Houston Center
09:52PM 31.0972 -90.9044 274° West 108 124 6,100  Level Houston Center
09:53PM 31.0983 -90.9406 272° West 110 127 6,100  Level Houston Center
09:54PM 31.1006 -90.9744 274° West 107 123 6,100  Level Houston Center
09:55PM 31.1017 -91.0106 272° West 109 125 6,100  Level Houston Center
09:56PM 31.1047 -91.0453 276° West 108 124 6,100  Level Houston Center
09:57PM 31.1044 -91.0819 270° West 111 128 6,100  Level Houston Center
09:58PM 31.1089 -91.1147 279° West 107 123 6,100  Level Houston Center
09:59PM 31.1092 -91.1539 270° West 109 125 6,100  Level Houston Center
10:00PM 31.1086 -91.1878 269° West 110 127 6,100  Level Houston Center
10:01PM 31.1131 -91.2286 277° West 107 123 6,100  Level Houston Center
10:02PM 31.1142 -91.2653 272° West 110 127 6,100  Level Houston Center
10:03PM 31.1161 -91.3003 274° West 110 127 6,100  Level Houston Center
10:04PM 31.1175 -91.3367 273° West 111 128 6,100  Level Houston Center
10:05PM 31.1178 -91.3731 271° West 112 129 6,100 -60 Level Houston Center
10:06PM 31.1194 -91.4125 273° West 113 130 6,000 -60 Descending Houston Center
10:07PM 31.1206 -91.4400 273° West 113 130 6,000  Level Houston Center
10:07PM 31.1208 -91.4425 277° West 113 130 6,000  Level Houston Center
10:07PM 31.1208 -91.4481 270° West 111 128 6,000  Level Houston Center
10:08PM 31.1217 -91.4814 272° West 114 131 6,000  Level Houston Center
10:08PM 31.1228 -91.4850 290° West 114 131 6,000  Level Houston Center
10:09PM 31.1244 -91.5200 273° West 113 130 6,000  Level Houston Center
10:09PM 31.1256 -91.5206 337° Northwest 111 128 6,000  Level Houston Center
10:10PM 31.1269 -91.5539 273° West 111 128 6,000  Level Houston Center
10:10PM 31.1281 -91.5572 291° West 113 130 6,000  Level Houston Center
10:11PM 31.1278 -91.5928 269° West 111 128 6,000  Level Houston Center
10:11PM 31.1292 -91.5944 314° West 114 131 6,000  Level Houston Center
10:12PM 31.1303 -91.6267 272° West 111 128 6,000  Level Houston Center
10:12PM 31.1311 -91.6286 297° West 108 124 6,000  Level Houston Center
10:13PM 31.1331 -91.6628 274° West 110 127 6,000  Level Houston Center
10:13PM 31.1311 -91.6644 216° Southwest 110 127 6,000  Level Houston Center
10:14PM 31.1356 -91.6967 279° West 107 123 6,000  Level Houston Center
10:14PM 31.1336 -91.6989 224° Southwest 108 124 6,000  Level Houston Center
10:15PM 31.1339 -91.7333 271° West 106 122 6,000  Level Houston Center
10:15PM 31.1356 -91.7336 352° North 108 124 6,000  Level Houston Center
10:16PM 31.1361 -91.7647 271° West 106 122 6,000  Level Houston Center
10:16PM 31.1367 -91.7675 283° West 105 121 6,000  Level Houston Center
10:17PM 31.1367 -91.8014 270° West 104 120 6,000  Level Houston Center
10:17PM 31.1386 -91.8014 360° North 105 121 6,000  Level Houston Center
10:18PM 31.1392 -91.8353 271° West 102 117 6,000  Level Houston Center
10:18PM 31.1400 -91.8344 41° Northeast 104 120 6,000  Level Houston Center
10:19PM 31.1414 -91.8667 273° West 102 117 6,000  Level Houston Center
10:19PM 31.1417 -91.8739 273° West 102 117 6,000  Level Houston Center
10:20PM 31.1442 -91.9028 276° West 103 119 6,000  Level Houston Center
10:20PM 31.1436 -91.9067 261° West 103 119 6,000  Level Houston Center
10:21PM 31.1442 -91.9344 271° West 103 119 6,000  Level Houston Center
10:21PM 31.1450 -91.9403 279° West 103 119 6,000  Level Houston Center
10:22PM 31.1467 -91.9683 274° West 105 121 6,000  Level Houston Center
10:22PM 31.1469 -91.9739 273° West 104 120 6,000  Level Houston Center
10:23PM 31.1486 -92.0075 273° West 104 120 6,000  Level Houston Center
10:24PM 31.1494 -92.0364 272° West 105 121 6,000  Level Houston Center
10:24PM 31.1500 -92.0411 278° West 104 120 6,000  Level Houston Center
10:25PM 31.1519 -92.0725 274° West 103 119 6,000  Level Houston Center
10:25PM 31.1522 -92.0747 278° West 104 120 6,000  Level Houston Center
10:26PM 31.1542 -92.1042 274° West 103 119 6,000  Level Houston Center
10:26PM 31.1536 -92.1083 261° West 104 120 6,000  Level Houston Center
10:27PM 31.1547 -92.1406 272° West 104 120 6,000  Level Houston Center
10:27PM 31.1558 -92.1419 313° West 104 120 6,000  Level Houston Center
10:28PM 31.1567 -92.1719 272° West 102 117 6,000  Level Houston Center
10:28PM 31.1578 -92.1750 293° West 103 119 6,000  Level Houston Center
10:29PM 31.1592 -92.2058 273° West 103 119 6,000  Level Houston Center
10:29PM 31.1589 -92.2081 262° West 103 119 6,000  Level Houston Center
10:30PM 31.1614 -92.2375 276° West 103 119 6,000  Level Houston Center
10:30PM 31.1603 -92.2408 249° West 102 117 6,000  Level Houston Center
10:31PM 31.1617 -92.2744 273° West 103 119 6,000  Level Houston Center
10:32PM 31.1619 -92.3056 271° West 103 119 6,000  Level Houston Center
10:32PM 31.1633 -92.3156 279° West 105 121 6,000  Level Houston Center
10:33PM 31.1642 -92.3419 272° West 107 123 6,000  Level Houston Center
10:33PM 31.1644 -92.3497 272° West 106 122 6,000  Level Houston Center
10:34PM 31.1644 -92.3758 270° West 107 123 6,000  Level Houston Center
10:35PM 31.1658 -92.3842 281° West 106 122 6,000  Level Houston Center
10:35PM 31.1647 -92.4100 267° West 105 121 6,000  Level Houston Center
10:36PM 31.1667 -92.4186 285° West 106 122 6,000  Level Houston Center
10:36PM 31.1650 -92.4464 266° West 105 121 6,000  Level Houston Center
10:37PM 31.1681 -92.4525 300° West 105 121 6,000  Level Houston Center
10:37PM 31.1694 -92.4778 274° West 106 122 6,000  Level Houston Center
10:38PM 31.1686 -92.4864 264° West 105 121 6,000  Level Houston Center
10:38PM 31.1697 -92.5142 273° West 105 121 6,000  Level Houston Center
10:39PM 31.1706 -92.5208 278° West 106 122 6,000  Level Houston Center
10:39PM 31.1697 -92.5458 268° West 106 122 6,000  Level Houston Center
10:40PM 31.1714 -92.5550 282° West 105 121 6,000  Level Houston Center
10:40PM 31.1722 -92.5822 272° West 105 121 6,000  Level Houston Center
10:41PM 31.1719 -92.5892 267° West 105 121 6,000  Level Houston Center
10:41PM 31.1722 -92.6164 271° West 105 121 6,000  Level Houston Center
10:42PM 31.1731 -92.6231 278° West 104 120 6,000  Level Houston Center
10:42PM 31.1725 -92.6503 269° West 106 122 6,000  Level Houston Center
10:43PM 31.1739 -92.6575 283° West 106 122 6,000  Level Houston Center
10:43PM 31.1747 -92.6867 272° West 105 121 6,000  Level Houston Center
10:44PM 31.1744 -92.6914 266° West 104 120 6,000  Level Houston Center
10:44PM 31.1747 -92.7183 271° West 101 116 6,000  Level Houston Center
10:45PM 31.1758 -92.7236 284° West 102 117 6,000  Level Houston Center
10:45PM 31.1769 -92.7522 273° West 99 114 6,000  Level Houston Center
10:46PM 31.1778 -92.7553 288° West 100 115 6,000  Level Houston Center
10:46PM 31.1769 -92.7839 268° West 103 119 6,000  Level Houston Center
10:47PM 31.1794 -92.7889 300° West 101 116 6,000  Level Houston Center
10:47PM 31.1792 -92.8178 269° West 105 121 6,000  Level Houston Center
10:48PM 31.1808 -92.8233 289° West 103 119 6,000  Level Houston Center
10:48PM 31.1814 -92.8517 271° West 105 121 6,000  Level Houston Center
10:49PM 31.1817 -92.8642 271° West 105 121 6,000  Level Houston Center
10:49PM 31.1814 -92.8858 269° West 104 120 6,000  Level Houston Center
10:50PM 31.1831 -92.8983 279° West 105 121 6,000  Level Houston Center
10:50PM 31.1836 -92.9222 272° West 103 119 6,000  Level Houston Center
10:51PM 31.1850 -92.9322 279° West 105 121 6,000  Level Houston Center
10:51PM 31.1858 -92.9536 273° West 104 120 6,000  Level Houston Center
10:52PM 31.1875 -92.9650 280° West 104 120 6,000  Level Houston Center
10:52PM 31.1858 -92.9903 266° West 103 119 6,000  Level Houston Center
10:53PM 31.1881 -92.9983 288° West 102 117 6,000  Level Houston Center
10:53PM 31.1881 -93.0217 270° West 104 120 6,000  Level Houston Center
10:54PM 31.1894 -93.0322 279° West 105 121 6,000  Level Houston Center
10:54PM 31.1900 -93.0556 272° West 104 120 6,000  Level Houston Center
10:55PM 31.1919 -93.0650 284° West 103 119 6,000  Level Houston Center
10:55PM 31.1922 -93.0894 271° West 104 120 6,000  Level Houston Center
10:56PM 31.1933 -93.0983 278° West 102 117 6,000  Level Houston Center
10:56PM 31.1942 -93.1233 272° West 104 120 6,000  Level Houston Center
10:57PM 31.1947 -93.1333 274° West 105 121 6,000  Level Houston Center
10:57PM 31.1964 -93.1572 275° West 102 117 6,000  Level Houston Center
10:58PM 31.1967 -93.1658 272° West 103 119 6,000  Level Houston Center
10:58PM 31.1986 -93.1911 275° West 104 120 6,000  Level Houston Center
10:59PM 31.1983 -93.1989 268° West 102 117 6,000  Level Houston Center
10:59PM 31.1986 -93.2253 271° West 104 120 6,000  Level Houston Center
11:00PM 31.2008 -93.2331 288° West 104 120 6,000  Level Houston Center
11:00PM 31.2006 -93.2569 269° West 103 119 6,000  Level Houston Center
11:01PM 31.2019 -93.2658 280° West 102 117 6,000  Level Houston Center
11:02PM 31.2025 -93.2931 271° West 102 117 6,000  Level Houston Center
11:02PM 31.2047 -93.3039 283° West 101 116 6,000  Level Houston Center
11:03PM 31.2067 -93.3269 276° West 102 117 6,000  Level Houston Center
11:03PM 31.2075 -93.3386 275° West 105 121 6,000  Level Houston Center
11:04PM 31.2086 -93.3583 274° West 103 119 6,000  Level Houston Center
11:04PM 31.2100 -93.3714 277° West 102 117 6,000  Level Houston Center
11:05PM 31.2108 -93.3922 273° West 102 117 6,000  Level Houston Center
11:05PM 31.2114 -93.4053 273° West 102 117 6,000  Level Houston Center
11:06PM 31.2125 -93.4239 274° West 102 117 6,000 60 Level Houston Center
11:06PM 31.2131 -93.4369 273° West 100 115 6,100 180 Climbing Houston Center
11:07PM 31.2125 -93.4556 268° West 91 105 6,200 60 Climbing Houston Center
11:07PM 31.2144 -93.4661 282° West 93 107 6,200 -120 Level Houston Center
11:08PM 31.2203 -93.4842 291° West 101 116 6,100 -120 Descending Houston Center
11:08PM 31.2250 -93.4969 293° West 98 113 6,100  Level Houston Center
11:09PM 31.2247 -93.5203 269° West 106 122 6,100 -120 Level Houston Center
11:09PM 31.2264 -93.5314 280° West 102 117 6,000  Descending Houston Center
11:10PM 31.2286 -93.5542 277° West 103 119 6,100  Climbing Houston Center
11:10PM 31.2303 -93.5639 281° West 102 117 6,000 -120 Descending Houston Center
11:11PM 31.2283 -93.5967 266° West 100 115 6,000  Level Houston Center
11:12PM 31.2336 -93.6275 281° West 96 110 6,000  Level Houston Center
11:13PM 31.2317 -93.6600 266° West 98 113 6,100  Climbing Houston Center
11:14PM 31.2333 -93.7003 273° West 102 117 6,000 -60 Descending Houston Center
11:15PM 31.2314 -93.7344 266° West 104 120 6,000  Level Houston Center
11:16PM 31.2294 -93.7653 266° West 97 112 6,000  Level Houston Center
11:17PM 31.2286 -93.7972 268° West 98 113 6,000  Level Houston Center
11:18PM 31.2286 -93.8292 270° West 98 113 6,000  Level Houston Center
11:19PM 31.2303 -93.8614 273° West 98 113 6,000  Level Houston Center
11:20PM 31.2308 -93.8947 271° West 101 116 6,000  Level Houston Center
11:21PM 31.2314 -93.9292 271° West 100 115 6,000  Level Houston Center
11:22PM 31.2331 -93.9614 273° West 99 114 6,000  Level Houston Center
11:23PM 31.2333 -93.9933 271° West 98 113 6,000  Level Houston Center
11:24PM 31.2328 -94.0250 269° West 96 110 6,000  Level Houston Center
11:25PM 31.2333 -94.0578 271° West 99 114 6,000  Level Houston Center
11:26PM 31.2336 -94.0894 271° West 98 113 6,000  Level Houston Center
11:27PM 31.2333 -94.1197 269° West 94 108 6,000  Level Houston Center
11:28PM 31.2336 -94.1503 271° West 93 107 6,000  Level Houston Center
11:29PM 31.2333 -94.1822 269° West 97 112 6,000  Level Houston Center
11:30PM 31.2325 -94.2144 268° West 98 113 6,000  Level Houston Center
11:31PM 31.2331 -94.2464 271° West 99 114 6,000 -180 Level Houston Center
11:32PM 31.2331 -94.2792 270° West 100 115 5,700 -360 Descending Houston Center
11:33PM 31.2319 -94.3175 268° West 116 133 5,300 -480 Descending Houston Center
11:34PM 31.2361 -94.3575 277° West 123 142 4,800 -480 Descending Houston Center
11:35PM 31.2444 -94.3975 284° West 127 146 4,400 -480 Descending Houston Center
11:36PM 31.2556 -94.4469 285° West 131 151 3,900 -540 Descending Houston Center
11:37PM 31.2661 -94.4881 287° West 133 153 3,400 -540 Descending Houston Center
11:38PM 31.2772 -94.5281 288° West 131 151 2,900 -480 Descending Houston Center
11:39PM 31.2844 -94.5700 281° West 132 152 2,500 -420 Descending Houston Center
11:41PM 31.2601 -94.5987 225° Southwest  Level FlightAware Approximate
11:48PM 31.2333 -94.7500 281° West  Level FlightAware Approximate
11:49PM 31.2210 -94.7156 281° West  Level Estimated
11:50PM 31.2333 -94.7500 281° West  Level FlightAware Approximate
11:51PM 31.2210 -94.7156 281° West  Level Estimated
11:52PM 31.2333 -94.7500 281° West  Level FlightAware Approximate
11:53PM 31.2210 -94.7156 281° West  Level Estimated
11:54PM 31.2333 -94.7500 281° West  Level FlightAware Approximate
11:55PM 31.2210 -94.7156 281° West  Level Estimated
11:56PM 31.2333 -94.7500 281° West  Level FlightAware Approximate
11:57PM 31.2210 -94.7156 281° West  Level Estimated
11:58PM 31.2333 -94.7500 281° West  Level FlightAware Approximate
11:59PM 31.2210 -94.7156 281° West  Level Estimated
12:00AM 31.2333 -94.7500 281° West  Level FlightAware Approximate
12:01AM 31.2210 -94.7156 281° West  Level Estimated
12:02AM 31.2333 -94.7500 281° West  Level FlightAware Approximate